Startpagina
METAR-TAF:

METAR-TAF

Vliegvelden :

Cannes, Frankrijk

breedte: 43-33N, lengte: 006-57E, hoogte: 3 m

Actueel weer

Dit bericht is 12 minuten geleden gemaakt, om 06:30 UTC
Wind 3 kt uit variabele richting
Temperatuur 16°C
Vochtigheid 59%
Druk 1017 hPa
Zicht 10 km of meer
geen wolken onder 1500 m en geen cumulonimbus

METAR: LFMD 220630Z AUTO VRB03KT CAVOK 16/08 Q1017 NOSIG

Tijdstip: 08:42 (06:42 UTC)

Verwachting

Dit bericht is 4 uur en het 42 minuten geleden gemaakt, om 02:00 UTC
Verwachting geldig van 22 om 03 UTC tot 23 om 03 UTC
Wind 2 kt uit variabele richting
Zicht 10 km of meer
geen wolken onder 1500 m en geen cumulonimbus
Wijzigt naar
van 22 om 07 UTC tot 22 om 09 UTC
Wind 10 kt uit het zuiden
Wijzigt naar
van 22 om 16 UTC tot 22 om 18 UTC
Wind 2 kt uit variabele richting
Kans 40% :
Tijdelijke
van 22 om 19 UTC tot 23 om 03 UTC
Zicht: 3000 m
Geheel bewolkt op 500 ft
nevel

TAF: LFMD 220200Z 2203/2303 VRB02KT CAVOK BECMG 2207/2209 18010KT BECMG 2216/2218 VRB02KT PROB40 TEMPO 2219/2303 3000 BR OVC005

Waarnemingen en weersverwachtingen van meer dan 4000 vliegvelden (METAR en TAF).

De beschikbare stations zijn de gele en rode punten op de kaart.

Ga met uw muis naar het station om de naam te zien.

Klik dan om waarnemingen en weersverwachtingen te zien.

kaart wijzigen: klik op de groene knoppen met een zwart kruis om in te zoomen, op de groene knop met een streepje om uit te zoomen of op de groene pijlen voor aangrenzende kaarten.


METAR-TAF: